sensor_id;sensor_type;location;lat;lon;timestamp;pressure;altitude;pressure_sealevel;temperature;humidity
10310;BME280;5200;43.236;27.986;2023-02-12T00:02:03;100932.78;;;-0.40;53.15
10310;BME280;5200;43.236;27.986;2023-02-12T00:04:30;100968.34;;;-0.19;53.23
10310;BME280;5200;43.236;27.986;2023-02-12T00:06:56;100964.84;;;-0.16;53.50
10310;BME280;5200;43.236;27.986;2023-02-12T00:09:23;100960.31;;;-0.10;53.22
10310;BME280;5200;43.236;27.986;2023-02-12T00:11:52;100958.72;;;-0.14;53.36
10310;BME280;5200;43.236;27.986;2023-02-12T00:14:18;100967.22;;;-0.10;53.28
10310;BME280;5200;43.236;27.986;2023-02-12T00:16:45;100966.22;;;-0.05;53.56
10310;BME280;5200;43.236;27.986;2023-02-12T00:19:12;100969.59;;;-0.03;53.51
10310;BME280;5200;43.236;27.986;2023-02-12T00:21:39;100962.81;;;-0.07;54.00
10310;BME280;5200;43.236;27.986;2023-02-12T00:24:06;100970.34;;;0.01;54.05
10310;BME280;5200;43.236;27.986;2023-02-12T00:26:35;100966.91;;;0.01;54.25
10310;BME280;5200;43.236;27.986;2023-02-12T00:29:03;100939.00;;;-0.18;54.39
10310;BME280;5200;43.236;27.986;2023-02-12T00:31:30;100965.22;;;-0.01;54.96
10310;BME280;5200;43.236;27.986;2023-02-12T00:33:58;100938.19;;;-0.18;55.21
10310;BME280;5200;43.236;27.986;2023-02-12T00:36:27;100931.16;;;-0.15;55.43
10310;BME280;5200;43.236;27.986;2023-02-12T00:38:55;100939.81;;;-0.16;55.67
10310;BME280;5200;43.236;27.986;2023-02-12T00:41:22;100932.94;;;-0.17;55.66
10310;BME280;5200;43.236;27.986;2023-02-12T00:43:49;100960.03;;;-0.01;56.02
10310;BME280;5200;43.236;27.986;2023-02-12T00:46:18;100953.28;;;-0.05;56.19
10310;BME280;5200;43.236;27.986;2023-02-12T00:48:45;100938.81;;;-0.12;56.27
10310;BME280;5200;43.236;27.986;2023-02-12T00:51:12;100945.00;;;-0.16;56.33
10310;BME280;5200;43.236;27.986;2023-02-12T00:53:39;100964.47;;;-0.04;56.79
10310;BME280;5200;43.236;27.986;2023-02-12T00:56:05;100926.09;;;-0.18;56.96
10310;BME280;5200;43.236;27.986;2023-02-12T00:58:32;100956.66;;;-0.03;57.20
10310;BME280;5200;43.236;27.986;2023-02-12T01:00:59;100930.28;;;-0.14;57.23
10310;BME280;5200;43.236;27.986;2023-02-12T01:03:27;100945.53;;;-0.05;57.28
10310;BME280;5200;43.236;27.986;2023-02-12T01:05:54;100941.22;;;-0.06;57.69
10310;BME280;5200;43.236;27.986;2023-02-12T01:08:21;100935.19;;;-0.05;57.57
10310;BME280;5200;43.236;27.986;2023-02-12T01:10:54;100921.09;;;-0.24;57.69
10310;BME280;5200;43.236;27.986;2023-02-12T01:13:21;100942.03;;;-0.04;57.87
10310;BME280;5200;43.236;27.986;2023-02-12T01:15:48;100949.78;;;-0.04;57.97
10310;BME280;5200;43.236;27.986;2023-02-12T01:18:15;100948.09;;;-0.05;58.54
10310;BME280;5200;43.236;27.986;2023-02-12T01:20:43;100912.44;;;-0.23;58.47
10310;BME280;5200;43.236;27.986;2023-02-12T01:23:10;100939.72;;;-0.13;58.38
10310;BME280;5200;43.236;27.986;2023-02-12T01:25:37;100938.84;;;-0.41;60.09
10310;BME280;5200;43.236;27.986;2023-02-12T01:28:04;100939.22;;;-0.54;60.59
10310;BME280;5200;43.236;27.986;2023-02-12T01:30:30;100935.50;;;-0.75;60.74
10310;BME280;5200;43.236;27.986;2023-02-12T01:32:57;100871.38;;;-1.23;61.39
10310;BME280;5200;43.236;27.986;2023-02-12T01:35:25;100946.25;;;-0.90;61.32
10310;BME280;5200;43.236;27.986;2023-02-12T01:37:53;100932.75;;;-1.00;62.09
10310;BME280;5200;43.236;27.986;2023-02-12T01:40:20;100937.22;;;-1.07;62.87
10310;BME280;5200;43.236;27.986;2023-02-12T01:42:47;100925.31;;;-1.12;62.90
10310;BME280;5200;43.236;27.986;2023-02-12T01:45:42;100924.59;;;-1.17;63.34
10310;BME280;5200;43.236;27.986;2023-02-12T01:48:10;100889.94;;;-1.41;63.68
10310;BME280;5200;43.236;27.986;2023-02-12T01:50:37;100918.78;;;-1.25;64.23
10310;BME280;5200;43.236;27.986;2023-02-12T01:53:06;100910.53;;;-1.38;65.37
10310;BME280;5200;43.236;27.986;2023-02-12T01:55:34;100919.31;;;-1.45;67.37
10310;BME280;5200;43.236;27.986;2023-02-12T01:58:01;100918.69;;;-1.55;68.83
10310;BME280;5200;43.236;27.986;2023-02-12T02:00:29;100892.88;;;-1.91;72.34
10310;BME280;5200;43.236;27.986;2023-02-12T02:02:58;100911.06;;;-1.96;73.83
10310;BME280;5200;43.236;27.986;2023-02-12T02:05:32;100938.34;;;-1.85;75.72
10310;BME280;5200;43.236;27.986;2023-02-12T02:08:00;100930.03;;;-1.98;77.74
10310;BME280;5200;43.236;27.986;2023-02-12T02:10:29;100907.19;;;-2.14;78.49
10310;BME280;5200;43.236;27.986;2023-02-12T02:12:56;100938.69;;;-2.01;78.46
10310;BME280;5200;43.236;27.986;2023-02-12T02:15:45;100936.28;;;-2.08;80.18
10310;BME280;5200;43.236;27.986;2023-02-12T02:18:18;100931.97;;;-2.08;80.30
10310;BME280;5200;43.236;27.986;2023-02-12T02:27:15;100931.25;;;-2.15;80.13
10310;BME280;5200;43.236;27.986;2023-02-12T02:32:55;100888.81;;;-2.37;79.78
10310;BME280;5200;43.236;27.986;2023-02-12T02:35:27;100927.00;;;-2.16;79.89
10310;BME280;5200;43.236;27.986;2023-02-12T02:38:05;100898.97;;;-2.31;79.47
10310;BME280;5200;43.236;27.986;2023-02-12T02:40:39;100908.34;;;-2.27;79.29
10310;BME280;5200;43.236;27.986;2023-02-12T02:43:10;100944.00;;;-2.07;79.85
10310;BME280;5200;43.236;27.986;2023-02-12T02:45:44;100908.25;;;-2.24;79.19
10310;BME280;5200;43.236;27.986;2023-02-12T02:48:17;100941.28;;;-2.02;78.87
10310;BME280;5200;43.236;27.986;2023-02-12T02:50:51;100910.63;;;-2.15;79.09
10310;BME280;5200;43.236;27.986;2023-02-12T02:53:21;100910.50;;;-2.08;78.25
10310;BME280;5200;43.236;27.986;2023-02-12T02:55:54;100891.75;;;-2.15;77.52
10310;BME280;5200;43.236;27.986;2023-02-12T02:58:24;100891.75;;;-2.17;77.88
10310;BME280;5200;43.236;27.986;2023-02-12T03:00:54;100902.09;;;-2.17;77.66
10310;BME280;5200;43.236;27.986;2023-02-12T03:03:29;100923.22;;;-2.01;77.17
10310;BME280;5200;43.236;27.986;2023-02-12T03:06:01;100925.91;;;-2.05;76.64
10310;BME280;5200;43.236;27.986;2023-02-12T03:08:33;100865.75;;;-2.45;76.32
10310;BME280;5200;43.236;27.986;2023-02-12T03:11:04;100902.97;;;-2.18;75.21
10310;BME280;5200;43.236;27.986;2023-02-12T03:13:36;100926.47;;;-1.93;74.51
10310;BME280;5200;43.236;27.986;2023-02-12T03:16:05;100901.66;;;-1.98;73.62
10310;BME280;5200;43.236;27.986;2023-02-12T03:18:41;100925.25;;;-1.78;73.57
10310;BME280;5200;43.236;27.986;2023-02-12T03:21:11;100938.88;;;-1.71;72.64
10310;BME280;5200;43.236;27.986;2023-02-12T03:23:42;100933.53;;;-1.65;71.45
10310;BME280;5200;43.236;27.986;2023-02-12T03:26:15;100925.63;;;-1.57;71.51
10310;BME280;5200;43.236;27.986;2023-02-12T03:28:45;100925.31;;;-1.45;70.31
10310;BME280;5200;43.236;27.986;2023-02-12T03:31:20;100916.66;;;-1.44;69.30
10310;BME280;5200;43.236;27.986;2023-02-12T03:34:01;100907.59;;;-1.24;69.07
10310;BME280;5200;43.236;27.986;2023-02-12T03:36:35;100862.47;;;-1.44;68.32
10310;BME280;5200;43.236;27.986;2023-02-12T03:39:10;100914.94;;;-1.11;67.88
10310;BME280;5200;43.236;27.986;2023-02-12T03:41:42;100880.75;;;-1.20;67.82
10310;BME280;5200;43.236;27.986;2023-02-12T03:44:21;100918.06;;;-0.98;67.20
10310;BME280;5200;43.236;27.986;2023-02-12T03:46:58;100910.19;;;-0.95;67.50
10310;BME280;5200;43.236;27.986;2023-02-12T03:49:31;100917.03;;;-0.92;66.95
10310;BME280;5200;43.236;27.986;2023-02-12T03:52:00;100910.75;;;-0.83;67.15
10310;BME280;5200;43.236;27.986;2023-02-12T03:54:27;100915.84;;;-0.80;66.97
10310;BME280;5200;43.236;27.986;2023-02-12T03:56:59;100885.34;;;-0.99;67.20
10310;BME280;5200;43.236;27.986;2023-02-12T03:59:27;100907.34;;;-0.84;67.06
10310;BME280;5200;43.236;27.986;2023-02-12T04:01:56;100874.00;;;-0.93;67.17
10310;BME280;5200;43.236;27.986;2023-02-12T04:04:24;100874.03;;;-0.95;67.63
10310;BME280;5200;43.236;27.986;2023-02-12T04:06:53;100867.09;;;-0.93;67.82
10310;BME280;5200;43.236;27.986;2023-02-12T04:09:23;100902.63;;;-0.70;67.82
10310;BME280;5200;43.236;27.986;2023-02-12T04:12:01;100897.34;;;-0.67;68.30
10310;BME280;5200;43.236;27.986;2023-02-12T04:14:40;100873.69;;;-0.82;68.50
10310;BME280;5200;43.236;27.986;2023-02-12T04:17:17;100907.69;;;-0.67;68.71
10310;BME280;5200;43.236;27.986;2023-02-12T04:19:56;100886.69;;;-0.86;69.50
10310;BME280;5200;43.236;27.986;2023-02-12T04:22:41;100909.78;;;-0.79;70.19
10310;BME280;5200;43.236;27.986;2023-02-12T04:25:20;100858.13;;;-1.11;70.18
10310;BME280;5200;43.236;27.986;2023-02-12T04:27:54;100880.25;;;-1.02;70.65
10310;BME280;5200;43.236;27.986;2023-02-12T04:30:26;100912.63;;;-0.89;71.18
10310;BME280;5200;43.236;27.986;2023-02-12T04:32:57;100873.69;;;-1.12;71.70
10310;BME280;5200;43.236;27.986;2023-02-12T04:35:30;100904.22;;;-0.97;71.75
10310;BME280;5200;43.236;27.986;2023-02-12T04:38:04;100917.09;;;-0.94;72.60
10310;BME280;5200;43.236;27.986;2023-02-12T04:40:34;100890.78;;;-1.08;73.28
10310;BME280;5200;43.236;27.986;2023-02-12T04:43:02;100911.00;;;-0.93;73.20
10310;BME280;5200;43.236;27.986;2023-02-12T04:45:31;100882.47;;;-1.19;74.10
10310;BME280;5200;43.236;27.986;2023-02-12T04:47:59;100877.56;;;-1.29;74.66
10310;BME280;5200;43.236;27.986;2023-02-12T04:50:27;100922.28;;;-0.95;74.70
10310;BME280;5200;43.236;27.986;2023-02-12T04:53:01;100927.44;;;-0.95;75.39
10310;BME280;5200;43.236;27.986;2023-02-12T04:55:28;100895.28;;;-1.16;75.07
10310;BME280;5200;43.236;27.986;2023-02-12T04:57:55;100927.53;;;-0.98;75.59
10310;BME280;5200;43.236;27.986;2023-02-12T05:00:22;100926.75;;;-1.02;75.96
10310;BME280;5200;43.236;27.986;2023-02-12T05:02:48;100908.44;;;-1.25;76.03
10310;BME280;5200;43.236;27.986;2023-02-12T05:05:15;100929.81;;;-1.19;76.57
10310;BME280;5200;43.236;27.986;2023-02-12T05:07:42;100952.13;;;-1.16;77.06
10310;BME280;5200;43.236;27.986;2023-02-12T05:10:11;100959.75;;;-1.12;76.53
10310;BME280;5200;43.236;27.986;2023-02-12T05:12:37;100963.25;;;-1.14;77.13
10310;BME280;5200;43.236;27.986;2023-02-12T05:15:05;100963.34;;;-1.17;77.10
10310;BME280;5200;43.236;27.986;2023-02-12T05:17:32;100930.25;;;-1.36;77.65
10310;BME280;5200;43.236;27.986;2023-02-12T05:19:59;100951.31;;;-1.18;78.27
10310;BME280;5200;43.236;27.986;2023-02-12T05:22:25;100946.94;;;-1.16;78.65
10310;BME280;5200;43.236;27.986;2023-02-12T05:24:52;100956.31;;;-1.12;79.22
10310;BME280;5200;43.236;27.986;2023-02-12T05:27:20;100919.72;;;-1.28;79.72
10310;BME280;5200;43.236;27.986;2023-02-12T05:29:47;100947.53;;;-1.07;79.33
10310;BME280;5200;43.236;27.986;2023-02-12T05:32:14;100935.47;;;-1.06;79.91
10310;BME280;5200;43.236;27.986;2023-02-12T05:34:41;100933.63;;;-1.01;80.36
10310;BME280;5200;43.236;27.986;2023-02-12T05:37:07;100893.16;;;-1.33;80.02
10310;BME280;5200;43.236;27.986;2023-02-12T05:39:34;100938.88;;;-1.04;80.00
10310;BME280;5200;43.236;27.986;2023-02-12T05:42:01;100959.94;;;-0.87;80.48
10310;BME280;5200;43.236;27.986;2023-02-12T05:44:29;100940.50;;;-1.00;79.88
10310;BME280;5200;43.236;27.986;2023-02-12T05:46:56;100931.78;;;-0.96;79.81
10310;BME280;5200;43.236;27.986;2023-02-12T05:49:22;100963.06;;;-0.75;80.15
10310;BME280;5200;43.236;27.986;2023-02-12T05:51:49;100957.81;;;-0.72;80.29
10310;BME280;5200;43.236;27.986;2023-02-12T05:54:16;100972.19;;;-0.62;80.31
10310;BME280;5200;43.236;27.986;2023-02-12T05:56:44;100946.56;;;-0.70;79.54
10310;BME280;5200;43.236;27.986;2023-02-12T05:59:14;100977.78;;;-0.46;79.37
10310;BME280;5200;43.236;27.986;2023-02-12T06:01:44;100969.09;;;-0.45;79.25
10310;BME280;5200;43.236;27.986;2023-02-12T06:04:14;100976.66;;;-0.37;78.79
10310;BME280;5200;43.236;27.986;2023-02-12T06:06:41;101000.19;;;-0.17;78.93
10310;BME280;5200;43.236;27.986;2023-02-12T06:09:08;100983.94;;;-0.20;78.40
10310;BME280;5200;43.236;27.986;2023-02-12T06:11:36;101004.03;;;-0.01;77.67
10310;BME280;5200;43.236;27.986;2023-02-12T06:14:03;101011.34;;;0.15;78.29
10310;BME280;5200;43.236;27.986;2023-02-12T06:16:31;101023.09;;;0.25;77.12
10310;BME280;5200;43.236;27.986;2023-02-12T06:19:01;101019.41;;;0.32;76.89
10310;BME280;5200;43.236;27.986;2023-02-12T06:21:28;101023.47;;;0.41;76.28
10310;BME280;5200;43.236;27.986;2023-02-12T06:23:55;101012.88;;;0.49;75.93
10310;BME280;5200;43.236;27.986;2023-02-12T06:26:23;100986.28;;;0.44;75.23
10310;BME280;5200;43.236;27.986;2023-02-12T06:28:50;101015.28;;;0.80;74.06
10310;BME280;5200;43.236;27.986;2023-02-12T06:31:19;100981.84;;;0.74;73.87
10310;BME280;5200;43.236;27.986;2023-02-12T06:33:46;101003.28;;;1.04;71.80
10310;BME280;5200;43.236;27.986;2023-02-12T06:36:15;101011.50;;;1.15;71.00
10310;BME280;5200;43.236;27.986;2023-02-12T06:38:42;101029.38;;;1.48;69.88
10310;BME280;5200;43.236;27.986;2023-02-12T06:41:09;101020.47;;;1.55;69.34
10310;BME280;5200;43.236;27.986;2023-02-12T06:43:36;101009.91;;;1.61;68.21
10310;BME280;5200;43.236;27.986;2023-02-12T06:46:04;101027.16;;;1.86;67.80
10310;BME280;5200;43.236;27.986;2023-02-12T06:48:31;101002.44;;;1.76;66.78
10310;BME280;5200;43.236;27.986;2023-02-12T06:51:03;101031.78;;;2.01;65.49
10310;BME280;5200;43.236;27.986;2023-02-12T06:53:33;101030.13;;;1.99;65.98
10310;BME280;5200;43.236;27.986;2023-02-12T06:56:00;101015.41;;;1.99;64.28
10310;BME280;5200;43.236;27.986;2023-02-12T06:58:27;101033.91;;;2.14;63.55
10310;BME280;5200;43.236;27.986;2023-02-12T07:00:54;101040.66;;;2.18;63.88
10310;BME280;5200;43.236;27.986;2023-02-12T07:03:21;100998.03;;;2.01;63.83
10310;BME280;5200;43.236;27.986;2023-02-12T07:05:48;100977.59;;;1.92;65.16
10310;BME280;5200;43.236;27.986;2023-02-12T07:08:15;101040.94;;;2.33;64.47
10310;BME280;5200;43.236;27.986;2023-02-12T07:10:47;101021.59;;;2.41;64.45
10310;BME280;5200;43.236;27.986;2023-02-12T07:13:14;101033.69;;;2.64;63.47
10310;BME280;5200;43.236;27.986;2023-02-12T07:15:41;101024.72;;;2.49;63.06
10310;BME280;5200;43.236;27.986;2023-02-12T07:18:08;101052.16;;;2.78;63.45
10310;BME280;5200;43.236;27.986;2023-02-12T07:20:35;101063.25;;;2.82;62.38
10310;BME280;5200;43.236;27.986;2023-02-12T07:23:01;101038.88;;;2.64;60.89
10310;BME280;5200;43.236;27.986;2023-02-12T07:25:28;101052.25;;;2.75;62.08
10310;BME280;5200;43.236;27.986;2023-02-12T07:27:56;101064.38;;;2.76;61.62
10310;BME280;5200;43.236;27.986;2023-02-12T07:30:23;101067.75;;;2.78;61.52
10310;BME280;5200;43.236;27.986;2023-02-12T07:32:50;101026.91;;;2.60;61.38
10310;BME280;5200;43.236;27.986;2023-02-12T07:35:17;101064.00;;;2.85;60.97
10310;BME280;5200;43.236;27.986;2023-02-12T07:37:43;101069.59;;;2.96;58.62
10310;BME280;5200;43.236;27.986;2023-02-12T07:40:10;101059.44;;;2.90;58.43
10310;BME280;5200;43.236;27.986;2023-02-12T07:42:37;101074.47;;;3.04;57.61
10310;BME280;5200;43.236;27.986;2023-02-12T07:45:06;101069.97;;;3.08;56.71
10310;BME280;5200;43.236;27.986;2023-02-12T07:47:33;101078.66;;;3.08;57.20
10310;BME280;5200;43.236;27.986;2023-02-12T07:50:03;101089.56;;;3.16;58.30
10310;BME280;5200;43.236;27.986;2023-02-12T07:52:31;101088.06;;;3.31;58.62
10310;BME280;5200;43.236;27.986;2023-02-12T07:54:58;101079.56;;;3.48;57.87
10310;BME280;5200;43.236;27.986;2023-02-12T07:57:28;101076.88;;;3.50;57.67
10310;BME280;5200;43.236;27.986;2023-02-12T07:59:55;101080.66;;;3.63;56.61
10310;BME280;5200;43.236;27.986;2023-02-12T08:02:23;101058.28;;;3.59;57.17
10310;BME280;5200;43.236;27.986;2023-02-12T08:04:54;101080.91;;;3.77;56.58
10310;BME280;5200;43.236;27.986;2023-02-12T08:07:22;101081.94;;;3.73;55.99
10310;BME280;5200;43.236;27.986;2023-02-12T08:09:51;101103.28;;;3.81;56.70
10310;BME280;5200;43.236;27.986;2023-02-12T08:12:19;101094.75;;;3.78;56.89
10310;BME280;5200;43.236;27.986;2023-02-12T08:14:46;101080.47;;;3.68;55.97
10310;BME280;5200;43.236;27.986;2023-02-12T08:17:13;101088.91;;;3.73;56.64
10310;BME280;5200;43.236;27.986;2023-02-12T08:19:41;101108.41;;;3.83;56.57
10310;BME280;5200;43.236;27.986;2023-02-12T08:22:08;101120.91;;;3.95;56.71
10310;BME280;5200;43.236;27.986;2023-02-12T08:24:35;101111.59;;;4.09;56.85
10310;BME280;5200;43.236;27.986;2023-02-12T08:27:04;101094.78;;;3.97;55.43
10310;BME280;5200;43.236;27.986;2023-02-12T08:29:35;101124.31;;;4.16;55.60
10310;BME280;5200;43.236;27.986;2023-02-12T08:32:03;101093.09;;;3.96;56.06
10310;BME280;5200;43.236;27.986;2023-02-12T08:34:34;101105.28;;;4.14;55.91
10310;BME280;5200;43.236;27.986;2023-02-12T08:37:03;101126.13;;;4.52;55.92
10310;BME280;5200;43.236;27.986;2023-02-12T08:39:30;101052.63;;;4.27;55.78
10310;BME280;5200;43.236;27.986;2023-02-12T08:41:59;101100.19;;;4.68;55.06
10310;BME280;5200;43.236;27.986;2023-02-12T08:44:26;101116.19;;;4.97;54.65
10310;BME280;5200;43.236;27.986;2023-02-12T08:46:53;101108.00;;;5.04;54.56
10310;BME280;5200;43.236;27.986;2023-02-12T08:49:22;101100.78;;;5.09;53.91
10310;BME280;5200;43.236;27.986;2023-02-12T08:51:51;101075.69;;;5.07;53.59
10310;BME280;5200;43.236;27.986;2023-02-12T08:54:21;101089.44;;;5.28;52.62
10310;BME280;5200;43.236;27.986;2023-02-12T08:56:49;101096.94;;;5.51;51.32
10310;BME280;5200;43.236;27.986;2023-02-12T08:59:16;101132.16;;;5.95;50.23
10310;BME280;5200;43.236;27.986;2023-02-12T09:01:43;101134.22;;;5.88;50.29
10310;BME280;5200;43.236;27.986;2023-02-12T09:04:14;101108.13;;;5.71;50.83
10310;BME280;5200;43.236;27.986;2023-02-12T09:06:42;101136.38;;;5.80;49.98
10310;BME280;5200;43.236;27.986;2023-02-12T09:09:09;101126.50;;;5.69;50.57
10310;BME280;5200;43.236;27.986;2023-02-12T09:11:37;101142.66;;;5.76;50.56
10310;BME280;5200;43.236;27.986;2023-02-12T09:14:06;101136.31;;;5.82;50.15
10310;BME280;5200;43.236;27.986;2023-02-12T09:16:35;101128.22;;;5.69;50.32
10310;BME280;5200;43.236;27.986;2023-02-12T09:19:02;101147.88;;;5.76;50.10
10310;BME280;5200;43.236;27.986;2023-02-12T09:21:29;101137.78;;;5.70;50.60
10310;BME280;5200;43.236;27.986;2023-02-12T09:23:56;101158.53;;;5.56;51.76
10310;BME280;5200;43.236;27.986;2023-02-12T09:26:24;101135.94;;;5.37;52.71
10310;BME280;5200;43.236;27.986;2023-02-12T09:28:53;101154.66;;;5.45;53.68
10310;BME280;5200;43.236;27.986;2023-02-12T09:31:21;101157.59;;;5.57;54.21
10310;BME280;5200;43.236;27.986;2023-02-12T09:33:51;101130.41;;;5.61;55.39
10310;BME280;5200;43.236;27.986;2023-02-12T09:36:18;101169.69;;;5.92;55.64
10310;BME280;5200;43.236;27.986;2023-02-12T09:38:45;101157.13;;;6.01;55.22
10310;BME280;5200;43.236;27.986;2023-02-12T09:41:36;101136.06;;;5.69;56.33
10310;BME280;5200;43.236;27.986;2023-02-12T09:44:16;101132.56;;;5.35;57.65
10310;BME280;5200;43.236;27.986;2023-02-12T09:46:47;101164.66;;;5.20;58.61
10310;BME280;5200;43.236;27.986;2023-02-12T09:49:21;101166.00;;;5.09;59.81
10310;BME280;5200;43.236;27.986;2023-02-12T09:51:52;101145.53;;;4.83;60.85
10310;BME280;5200;43.236;27.986;2023-02-12T09:54:22;101161.19;;;4.83;61.41
10310;BME280;5200;43.236;27.986;2023-02-12T09:56:54;101148.53;;;4.75;62.17
10310;BME280;5200;43.236;27.986;2023-02-12T09:59:29;101160.03;;;4.88;62.64
10310;BME280;5200;43.236;27.986;2023-02-12T10:01:58;101176.44;;;4.73;63.80
10310;BME280;5200;43.236;27.986;2023-02-12T10:04:25;101162.31;;;4.58;64.71
10310;BME280;5200;43.236;27.986;2023-02-12T10:07:00;101139.59;;;4.43;64.34
10310;BME280;5200;43.236;27.986;2023-02-12T10:09:41;101168.72;;;4.51;64.67
10310;BME280;5200;43.236;27.986;2023-02-12T10:12:19;101176.34;;;4.37;64.68
10310;BME280;5200;43.236;27.986;2023-02-12T10:15:14;101166.41;;;4.26;65.81
10310;BME280;5200;43.236;27.986;2023-02-12T10:17:47;101170.22;;;4.19;66.67
10310;BME280;5200;43.236;27.986;2023-02-12T10:26:28;101155.88;;;4.09;68.69
10310;BME280;5200;43.236;27.986;2023-02-12T10:29:00;101166.00;;;4.16;68.56
10310;BME280;5200;43.236;27.986;2023-02-12T10:31:36;101109.81;;;3.90;67.71
10310;BME280;5200;43.236;27.986;2023-02-12T10:34:14;101156.69;;;4.30;67.54
10310;BME280;5200;43.236;27.986;2023-02-12T10:36:43;101179.72;;;4.39;67.66
10310;BME280;5200;43.236;27.986;2023-02-12T10:39:14;101161.28;;;4.43;68.01
10310;BME280;5200;43.236;27.986;2023-02-12T10:41:47;101138.88;;;4.39;68.09
10310;BME280;5200;43.236;27.986;2023-02-12T10:44:15;101167.31;;;4.63;67.20
10310;BME280;5200;43.236;27.986;2023-02-12T10:46:43;101167.06;;;4.69;66.67
10310;BME280;5200;43.236;27.986;2023-02-12T10:49:13;101141.88;;;4.49;66.22
10310;BME280;5200;43.236;27.986;2023-02-12T10:51:56;101175.84;;;4.66;66.23
10310;BME280;5200;43.236;27.986;2023-02-12T10:54:36;101157.09;;;4.58;65.65
10310;BME280;5200;43.236;27.986;2023-02-12T10:57:07;101184.66;;;4.83;65.28
10310;BME280;5200;43.236;27.986;2023-02-12T10:59:35;101184.94;;;4.77;63.00
10310;BME280;5200;43.236;27.986;2023-02-12T11:02:04;101173.53;;;4.60;63.03
10310;BME280;5200;43.236;27.986;2023-02-12T11:04:44;101148.41;;;4.40;63.58
10310;BME280;5200;43.236;27.986;2023-02-12T11:07:10;101177.69;;;4.64;63.19
10310;BME280;5200;43.236;27.986;2023-02-12T11:09:39;101173.25;;;4.66;63.54
10310;BME280;5200;43.236;27.986;2023-02-12T11:12:19;101205.16;;;4.91;63.42
10310;BME280;5200;43.236;27.986;2023-02-12T11:14:50;101188.09;;;4.83;62.90
10310;BME280;5200;43.236;27.986;2023-02-12T11:17:24;101210.38;;;4.91;62.63
10310;BME280;5200;43.236;27.986;2023-02-12T11:20:03;101182.31;;;4.77;62.10
10310;BME280;5200;43.236;27.986;2023-02-12T11:22:30;101200.50;;;4.97;61.61
10310;BME280;5200;43.236;27.986;2023-02-12T11:24:59;101203.44;;;5.08;60.45
10310;BME280;5200;43.236;27.986;2023-02-12T11:27:29;101160.03;;;4.88;59.47
10310;BME280;5200;43.236;27.986;2023-02-12T11:30:15;101209.91;;;5.19;60.00
10310;BME280;5200;43.236;27.986;2023-02-12T11:32:44;101190.03;;;5.16;58.54
10310;BME280;5200;43.236;27.986;2023-02-12T11:35:14;101211.78;;;5.34;58.39
10310;BME280;5200;43.236;27.986;2023-02-12T11:37:44;101181.06;;;5.22;58.32
10310;BME280;5200;43.236;27.986;2023-02-12T11:40:19;101206.88;;;5.45;58.58
10310;BME280;5200;43.236;27.986;2023-02-12T11:42:48;101174.53;;;5.30;58.13
10310;BME280;5200;43.236;27.986;2023-02-12T11:45:19;101175.59;;;5.26;57.27
10310;BME280;5200;43.236;27.986;2023-02-12T11:47:49;101202.19;;;5.35;57.28
10310;BME280;5200;43.236;27.986;2023-02-12T11:50:23;101191.69;;;5.36;56.61
10310;BME280;5200;43.236;27.986;2023-02-12T11:52:53;101161.81;;;5.24;56.20
10310;BME280;5200;43.236;27.986;2023-02-12T11:55:23;101196.59;;;5.42;55.54
10310;BME280;5200;43.236;27.986;2023-02-12T11:57:53;101198.97;;;5.47;55.53
10310;BME280;5200;43.236;27.986;2023-02-12T12:00:23;101193.97;;;5.42;54.98
10310;BME280;5200;43.236;27.986;2023-02-12T12:02:57;101200.47;;;5.34;55.13
10310;BME280;5200;43.236;27.986;2023-02-12T12:05:30;101211.84;;;5.15;55.62
10310;BME280;5200;43.236;27.986;2023-02-12T12:08:04;101192.88;;;4.93;57.25
10310;BME280;5200;43.236;27.986;2023-02-12T12:10:35;101215.88;;;4.84;57.46
10310;BME280;5200;43.236;27.986;2023-02-12T12:13:10;101218.72;;;4.80;58.73
10310;BME280;5200;43.236;27.986;2023-02-12T12:15:42;101205.31;;;4.69;59.97
10310;BME280;5200;43.236;27.986;2023-02-12T12:18:34;101187.13;;;4.48;60.53
10310;BME280;5200;43.236;27.986;2023-02-12T12:21:25;101147.97;;;4.31;61.43
10310;BME280;5200;43.236;27.986;2023-02-12T12:23:56;101204.53;;;4.66;61.41
10310;BME280;5200;43.236;27.986;2023-02-12T12:26:26;101189.94;;;4.43;62.09
10310;BME280;5200;43.236;27.986;2023-02-12T12:28:58;101207.81;;;4.51;63.24
10310;BME280;5200;43.236;27.986;2023-02-12T12:31:31;101225.19;;;4.52;63.49
10310;BME280;5200;43.236;27.986;2023-02-12T12:34:06;101220.22;;;4.46;63.88
10310;BME280;5200;43.236;27.986;2023-02-12T12:36:57;101233.88;;;4.51;64.03
10310;BME280;5200;43.236;27.986;2023-02-12T12:39:29;101219.75;;;4.38;64.58
10310;BME280;5200;43.236;27.986;2023-02-12T12:45:06;101217.16;;;3.97;67.98
10310;BME280;5200;43.236;27.986;2023-02-12T12:47:42;101219.50;;;3.83;69.02
10310;BME280;5200;43.236;27.986;2023-02-12T12:50:27;101214.44;;;3.79;68.07
10310;BME280;5200;43.236;27.986;2023-02-12T12:53:06;101219.25;;;3.68;69.94
10310;BME280;5200;43.236;27.986;2023-02-12T12:55:50;101251.97;;;3.74;71.99
10310;BME280;5200;43.236;27.986;2023-02-12T12:58:25;101249.19;;;3.58;72.88
10310;BME280;5200;43.236;27.986;2023-02-12T13:01:13;101255.41;;;3.54;74.17
10310;BME280;5200;43.236;27.986;2023-02-12T13:07:06;101259.50;;;3.59;72.89
10310;BME280;5200;43.236;27.986;2023-02-12T13:09:57;101269.06;;;3.59;72.96
10310;BME280;5200;43.236;27.986;2023-02-12T13:15:29;101250.69;;;3.42;74.13
10310;BME280;5200;43.236;27.986;2023-02-12T13:18:06;101277.91;;;3.55;75.17
10310;BME280;5200;43.236;27.986;2023-02-12T13:20:45;101257.72;;;3.39;76.77
10310;BME280;5200;43.236;27.986;2023-02-12T13:23:16;101283.84;;;3.58;77.01
10310;BME280;5200;43.236;27.986;2023-02-12T13:25:50;101267.50;;;3.55;78.30
10310;BME280;5200;43.236;27.986;2023-02-12T13:28:28;101290.25;;;3.50;78.64
10310;BME280;5200;43.236;27.986;2023-02-12T13:30:58;101297.53;;;3.42;78.89
10310;BME280;5200;43.236;27.986;2023-02-12T13:33:33;101302.06;;;3.36;79.67
10310;BME280;5200;43.236;27.986;2023-02-12T13:36:04;101309.97;;;3.33;80.32
10310;BME280;5200;43.236;27.986;2023-02-12T13:38:34;101313.41;;;3.34;79.48